sensor_id;sensor_type;location;lat;lon;timestamp;temperature;humidity
13049;DHT22;6591;51.446;5.404;2022-08-30T00:00:21;19.40;94.30
13049;DHT22;6591;51.446;5.404;2022-08-30T00:03:09;19.40;94.60
13049;DHT22;6591;51.446;5.404;2022-08-30T00:05:42;19.40;94.80
13049;DHT22;6591;51.446;5.404;2022-08-30T00:08:10;19.30;94.40
13049;DHT22;6591;51.446;5.404;2022-08-30T00:10:40;22.00;95.30
13049;DHT22;6591;51.446;5.404;2022-08-30T00:13:08;19.30;94.60
13049;DHT22;6591;51.446;5.404;2022-08-30T00:15:40;20.40;95.30
13049;DHT22;6591;51.446;5.404;2022-08-30T00:18:08;20.90;95.80
13049;DHT22;6591;51.446;5.404;2022-08-30T00:20:36;20.70;95.90
13049;DHT22;6591;51.446;5.404;2022-08-30T00:23:04;20.50;95.80
13049;DHT22;6591;51.446;5.404;2022-08-30T00:25:31;19.10;95.70
13049;DHT22;6591;51.446;5.404;2022-08-30T00:27:59;19.10;95.70
13049;DHT22;6591;51.446;5.404;2022-08-30T00:30:28;19.10;96.10
13049;DHT22;6591;51.446;5.404;2022-08-30T00:32:55;19.00;96.20
13049;DHT22;6591;51.446;5.404;2022-08-30T00:35:23;19.00;96.30
13049;DHT22;6591;51.446;5.404;2022-08-30T00:37:50;19.00;96.30
13049;DHT22;6591;51.446;5.404;2022-08-30T00:40:19;19.00;96.20
13049;DHT22;6591;51.446;5.404;2022-08-30T00:42:55;19.00;96.50
13049;DHT22;6591;51.446;5.404;2022-08-30T00:45:34;19.10;96.80
13049;DHT22;6591;51.446;5.404;2022-08-30T00:48:04;19.10;96.90
13049;DHT22;6591;51.446;5.404;2022-08-30T00:50:46;20.30;97.40
13049;DHT22;6591;51.446;5.404;2022-08-30T00:53:25;21.00;98.10
13049;DHT22;6591;51.446;5.404;2022-08-30T00:55:55;19.10;97.10
13049;DHT22;6591;51.446;5.404;2022-08-30T00:58:32;19.20;97.00
13049;DHT22;6591;51.446;5.404;2022-08-30T01:01:03;19.40;97.20
13049;DHT22;6591;51.446;5.404;2022-08-30T01:03:34;19.20;96.90
13049;DHT22;6591;51.446;5.404;2022-08-30T01:06:03;20.70;97.30
13049;DHT22;6591;51.446;5.404;2022-08-30T01:08:31;21.40;97.80
13049;DHT22;6591;51.446;5.404;2022-08-30T01:10:58;21.00;97.50
13049;DHT22;6591;51.446;5.404;2022-08-30T01:13:28;19.40;97.00
13049;DHT22;6591;51.446;5.404;2022-08-30T01:15:55;19.40;97.20
13049;DHT22;6591;51.446;5.404;2022-08-30T01:18:26;19.40;97.20
13049;DHT22;6591;51.446;5.404;2022-08-30T01:23:47;19.50;97.50
13049;DHT22;6591;51.446;5.404;2022-08-30T01:26:17;19.50;97.00
13049;DHT22;6591;51.446;5.404;2022-08-30T01:28:51;19.40;97.00
13049;DHT22;6591;51.446;5.404;2022-08-30T01:31:20;20.70;97.40
13049;DHT22;6591;51.446;5.404;2022-08-30T01:33:48;19.40;96.80
13049;DHT22;6591;51.446;5.404;2022-08-30T01:36:17;19.40;96.70
13049;DHT22;6591;51.446;5.404;2022-08-30T01:38:54;19.40;97.00
13049;DHT22;6591;51.446;5.404;2022-08-30T01:41:32;19.30;97.50
13049;DHT22;6591;51.446;5.404;2022-08-30T01:44:09;19.20;97.50
13049;DHT22;6591;51.446;5.404;2022-08-30T01:46:41;19.20;97.70
13049;DHT22;6591;51.446;5.404;2022-08-30T01:49:13;19.20;97.50
13049;DHT22;6591;51.446;5.404;2022-08-30T01:51:52;19.20;97.60
13049;DHT22;6591;51.446;5.404;2022-08-30T01:54:30;19.10;97.80
13049;DHT22;6591;51.446;5.404;2022-08-30T01:57:06;19.10;97.90
13049;DHT22;6591;51.446;5.404;2022-08-30T01:59:36;19.10;97.70
13049;DHT22;6591;51.446;5.404;2022-08-30T02:02:05;19.00;97.80
13049;DHT22;6591;51.446;5.404;2022-08-30T02:04:32;19.00;97.80
13049;DHT22;6591;51.446;5.404;2022-08-30T02:06:59;19.00;97.80
13049;DHT22;6591;51.446;5.404;2022-08-30T02:09:27;20.30;98.40
13049;DHT22;6591;51.446;5.404;2022-08-30T02:11:54;19.10;98.30
13049;DHT22;6591;51.446;5.404;2022-08-30T02:14:21;18.90;98.00
13049;DHT22;6591;51.446;5.404;2022-08-30T02:16:48;18.90;98.20
13049;DHT22;6591;51.446;5.404;2022-08-30T02:19:16;20.70;98.40
13049;DHT22;6591;51.446;5.404;2022-08-30T02:21:43;18.90;98.30
13049;DHT22;6591;51.446;5.404;2022-08-30T02:24:10;18.80;98.30
13049;DHT22;6591;51.446;5.404;2022-08-30T02:26:40;18.80;98.60
13049;DHT22;6591;51.446;5.404;2022-08-30T02:29:08;21.00;99.20
13049;DHT22;6591;51.446;5.404;2022-08-30T02:31:35;20.40;99.30
13049;DHT22;6591;51.446;5.404;2022-08-30T02:34:02;18.70;98.50
13049;DHT22;6591;51.446;5.404;2022-08-30T02:36:30;19.90;99.10
13049;DHT22;6591;51.446;5.404;2022-08-30T02:38:57;18.60;98.80
13049;DHT22;6591;51.446;5.404;2022-08-30T02:41:24;18.60;98.90
13049;DHT22;6591;51.446;5.404;2022-08-30T02:43:51;18.60;98.60
13049;DHT22;6591;51.446;5.404;2022-08-30T02:46:18;18.50;98.70
13049;DHT22;6591;51.446;5.404;2022-08-30T02:48:45;18.40;99.00
13049;DHT22;6591;51.446;5.404;2022-08-30T02:51:13;18.40;98.70
13049;DHT22;6591;51.446;5.404;2022-08-30T02:53:41;18.40;99.20
13049;DHT22;6591;51.446;5.404;2022-08-30T02:56:11;19.00;99.40
13049;DHT22;6591;51.446;5.404;2022-08-30T02:58:40;18.50;99.40
13049;DHT22;6591;51.446;5.404;2022-08-30T03:01:09;18.40;99.40
13049;DHT22;6591;51.446;5.404;2022-08-30T03:03:40;20.40;99.90
13049;DHT22;6591;51.446;5.404;2022-08-30T03:06:09;18.20;99.50
13049;DHT22;6591;51.446;5.404;2022-08-30T03:08:37;18.30;99.90
13049;DHT22;6591;51.446;5.404;2022-08-30T03:11:04;18.20;99.90
13049;DHT22;6591;51.446;5.404;2022-08-30T03:13:32;16.70;99.60
13049;DHT22;6591;51.446;5.404;2022-08-30T03:15:59;18.20;99.90
13049;DHT22;6591;51.446;5.404;2022-08-30T03:18:26;18.20;99.90
13049;DHT22;6591;51.446;5.404;2022-08-30T03:20:54;19.20;99.90
13049;DHT22;6591;51.446;5.404;2022-08-30T03:23:23;18.30;99.90
13049;DHT22;6591;51.446;5.404;2022-08-30T03:25:51;17.90;99.90
13049;DHT22;6591;51.446;5.404;2022-08-30T03:28:19;18.60;99.90
13049;DHT22;6591;51.446;5.404;2022-08-30T03:30:46;18.40;99.90
13049;DHT22;6591;51.446;5.404;2022-08-30T03:33:14;18.40;99.90
13049;DHT22;6591;51.446;5.404;2022-08-30T03:35:44;19.10;99.90
13049;DHT22;6591;51.446;5.404;2022-08-30T03:38:11;18.40;99.90
13049;DHT22;6591;51.446;5.404;2022-08-30T03:40:44;20.10;99.90
13049;DHT22;6591;51.446;5.404;2022-08-30T03:43:14;19.20;99.90
13049;DHT22;6591;51.446;5.404;2022-08-30T03:45:41;18.40;99.80
13049;DHT22;6591;51.446;5.404;2022-08-30T03:48:09;20.50;99.90
13049;DHT22;6591;51.446;5.404;2022-08-30T03:50:36;19.20;99.90
13049;DHT22;6591;51.446;5.404;2022-08-30T03:53:03;18.30;99.80
13049;DHT22;6591;51.446;5.404;2022-08-30T03:55:30;19.70;99.90
13049;DHT22;6591;51.446;5.404;2022-08-30T03:58:00;18.30;99.90
13049;DHT22;6591;51.446;5.404;2022-08-30T04:00:28;19.30;99.90
13049;DHT22;6591;51.446;5.404;2022-08-30T04:02:55;18.20;99.90
13049;DHT22;6591;51.446;5.404;2022-08-30T04:05:22;18.20;99.90
13049;DHT22;6591;51.446;5.404;2022-08-30T04:07:49;20.20;99.90
13049;DHT22;6591;51.446;5.404;2022-08-30T04:10:16;18.30;99.90
13049;DHT22;6591;51.446;5.404;2022-08-30T04:12:43;18.90;99.90
13049;DHT22;6591;51.446;5.404;2022-08-30T04:15:16;18.20;99.90
13049;DHT22;6591;51.446;5.404;2022-08-30T04:17:45;18.20;99.90
13049;DHT22;6591;51.446;5.404;2022-08-30T04:20:12;18.20;99.90
13049;DHT22;6591;51.446;5.404;2022-08-30T04:22:40;18.20;99.90
13049;DHT22;6591;51.446;5.404;2022-08-30T04:25:08;18.20;99.90
13049;DHT22;6591;51.446;5.404;2022-08-30T04:27:42;18.10;99.90
13049;DHT22;6591;51.446;5.404;2022-08-30T04:30:12;18.10;99.90
13049;DHT22;6591;51.446;5.404;2022-08-30T04:32:41;18.10;99.90
13049;DHT22;6591;51.446;5.404;2022-08-30T04:35:10;18.10;99.90
13049;DHT22;6591;51.446;5.404;2022-08-30T04:37:37;18.10;99.90
13049;DHT22;6591;51.446;5.404;2022-08-30T04:40:06;20.20;99.90
13049;DHT22;6591;51.446;5.404;2022-08-30T04:42:34;18.10;99.90
13049;DHT22;6591;51.446;5.404;2022-08-30T04:45:05;18.10;99.90
13049;DHT22;6591;51.446;5.404;2022-08-30T04:47:35;18.10;99.90
13049;DHT22;6591;51.446;5.404;2022-08-30T04:50:08;18.10;99.90
13049;DHT22;6591;51.446;5.404;2022-08-30T04:52:37;18.10;99.90
13049;DHT22;6591;51.446;5.404;2022-08-30T04:55:05;18.00;99.90
13049;DHT22;6591;51.446;5.404;2022-08-30T04:57:34;18.00;99.90
13049;DHT22;6591;51.446;5.404;2022-08-30T05:00:07;18.00;99.90
13049;DHT22;6591;51.446;5.404;2022-08-30T05:02:38;17.90;99.90
13049;DHT22;6591;51.446;5.404;2022-08-30T05:05:07;17.90;99.90
13049;DHT22;6591;51.446;5.404;2022-08-30T05:07:54;17.90;99.90
13049;DHT22;6591;51.446;5.404;2022-08-30T05:10:21;17.80;99.90
13049;DHT22;6591;51.446;5.404;2022-08-30T05:12:49;20.10;99.90
13049;DHT22;6591;51.446;5.404;2022-08-30T05:15:16;17.80;99.90
13049;DHT22;6591;51.446;5.404;2022-08-30T05:17:43;20.00;99.90
13049;DHT22;6591;51.446;5.404;2022-08-30T05:24:41;17.80;99.90
13049;DHT22;6591;51.446;5.404;2022-08-30T05:27:08;17.80;99.90
13049;DHT22;6591;51.446;5.404;2022-08-30T05:29:35;17.80;99.90
13049;DHT22;6591;51.446;5.404;2022-08-30T05:32:02;17.90;99.90
13049;DHT22;6591;51.446;5.404;2022-08-30T05:34:29;17.80;99.90
13049;DHT22;6591;51.446;5.404;2022-08-30T05:36:57;19.10;99.90
13049;DHT22;6591;51.446;5.404;2022-08-30T05:39:28;20.50;99.90
13049;DHT22;6591;51.446;5.404;2022-08-30T05:42:15;18.00;99.90
13049;DHT22;6591;51.446;5.404;2022-08-30T05:44:42;18.10;99.90
13049;DHT22;6591;51.446;5.404;2022-08-30T05:47:10;18.50;99.90
13049;DHT22;6591;51.446;5.404;2022-08-30T05:49:37;18.10;99.90
13049;DHT22;6591;51.446;5.404;2022-08-30T05:52:04;18.20;99.90
13049;DHT22;6591;51.446;5.404;2022-08-30T05:54:31;18.20;99.90
13049;DHT22;6591;51.446;5.404;2022-08-30T05:56:59;19.70;99.90
13049;DHT22;6591;51.446;5.404;2022-08-30T05:59:26;18.10;99.90
13049;DHT22;6591;51.446;5.404;2022-08-30T06:01:56;18.20;99.90
13049;DHT22;6591;51.446;5.404;2022-08-30T06:04:26;18.30;99.90
13049;DHT22;6591;51.446;5.404;2022-08-30T06:06:53;18.20;99.90
13049;DHT22;6591;51.446;5.404;2022-08-30T06:09:21;18.40;99.90
13049;DHT22;6591;51.446;5.404;2022-08-30T06:11:48;18.30;99.90
13049;DHT22;6591;51.446;5.404;2022-08-30T06:14:15;19.30;99.90
13049;DHT22;6591;51.446;5.404;2022-08-30T06:16:43;20.50;99.90
13049;DHT22;6591;51.446;5.404;2022-08-30T06:19:13;18.40;99.90
13049;DHT22;6591;51.446;5.404;2022-08-30T06:21:42;18.50;99.90
13049;DHT22;6591;51.446;5.404;2022-08-30T06:24:13;21.20;99.90
13049;DHT22;6591;51.446;5.404;2022-08-30T06:26:43;18.70;99.90
13049;DHT22;6591;51.446;5.404;2022-08-30T06:29:14;19.80;99.90
13049;DHT22;6591;51.446;5.404;2022-08-30T06:31:44;20.60;99.90
13049;DHT22;6591;51.446;5.404;2022-08-30T06:34:11;18.80;99.90
13049;DHT22;6591;51.446;5.404;2022-08-30T06:36:39;20.80;99.90
13049;DHT22;6591;51.446;5.404;2022-08-30T06:39:07;20.90;99.90
13049;DHT22;6591;51.446;5.404;2022-08-30T06:41:36;19.00;99.90
13049;DHT22;6591;51.446;5.404;2022-08-30T06:44:19;19.10;99.90
13049;DHT22;6591;51.446;5.404;2022-08-30T06:46:46;19.30;99.90
13049;DHT22;6591;51.446;5.404;2022-08-30T06:49:13;19.30;99.90
13049;DHT22;6591;51.446;5.404;2022-08-30T06:51:40;19.50;99.90
13049;DHT22;6591;51.446;5.404;2022-08-30T06:54:11;19.50;99.90
13049;DHT22;6591;51.446;5.404;2022-08-30T06:56:39;19.60;99.90
13049;DHT22;6591;51.446;5.404;2022-08-30T06:59:26;19.60;99.90
13049;DHT22;6591;51.446;5.404;2022-08-30T07:01:54;19.70;99.70
13049;DHT22;6591;51.446;5.404;2022-08-30T07:04:25;19.80;99.60
13049;DHT22;6591;51.446;5.404;2022-08-30T07:06:52;21.50;99.90
13049;DHT22;6591;51.446;5.404;2022-08-30T07:09:19;19.90;99.40
13049;DHT22;6591;51.446;5.404;2022-08-30T07:11:49;20.10;99.30
13049;DHT22;6591;51.446;5.404;2022-08-30T07:14:17;20.20;99.20
13049;DHT22;6591;51.446;5.404;2022-08-30T07:16:44;20.30;99.10
13049;DHT22;6591;51.446;5.404;2022-08-30T07:19:16;21.30;99.30
13049;DHT22;6591;51.446;5.404;2022-08-30T07:21:47;20.60;99.00
13049;DHT22;6591;51.446;5.404;2022-08-30T07:24:15;21.30;98.90
13049;DHT22;6591;51.446;5.404;2022-08-30T07:26:46;20.80;98.70
13049;DHT22;6591;51.446;5.404;2022-08-30T07:29:16;20.80;98.60
13049;DHT22;6591;51.446;5.404;2022-08-30T07:31:44;22.90;99.00
13049;DHT22;6591;51.446;5.404;2022-08-30T07:34:14;21.10;98.20
13049;DHT22;6591;51.446;5.404;2022-08-30T07:36:42;21.30;98.00
13049;DHT22;6591;51.446;5.404;2022-08-30T07:39:09;21.50;97.70
13049;DHT22;6591;51.446;5.404;2022-08-30T07:41:37;21.60;97.50
13049;DHT22;6591;51.446;5.404;2022-08-30T07:44:08;21.70;96.80
13049;DHT22;6591;51.446;5.404;2022-08-30T07:46:39;21.80;96.70
13049;DHT22;6591;51.446;5.404;2022-08-30T07:49:07;21.80;96.70
13049;DHT22;6591;51.446;5.404;2022-08-30T07:51:38;21.90;96.60
13049;DHT22;6591;51.446;5.404;2022-08-30T07:54:06;21.90;96.40
13049;DHT22;6591;51.446;5.404;2022-08-30T07:56:33;22.00;96.30
13049;DHT22;6591;51.446;5.404;2022-08-30T07:59:01;22.00;96.10
13049;DHT22;6591;51.446;5.404;2022-08-30T08:01:29;24.30;96.90
13049;DHT22;6591;51.446;5.404;2022-08-30T08:03:56;22.10;96.00
13049;DHT22;6591;51.446;5.404;2022-08-30T08:06:23;22.10;95.90
13049;DHT22;6591;51.446;5.404;2022-08-30T08:08:51;22.10;95.80
13049;DHT22;6591;51.446;5.404;2022-08-30T08:11:22;22.30;95.70
13049;DHT22;6591;51.446;5.404;2022-08-30T08:14:01;22.40;95.70
13049;DHT22;6591;51.446;5.404;2022-08-30T08:16:32;22.50;95.60
13049;DHT22;6591;51.446;5.404;2022-08-30T08:19:00;22.60;95.50
13049;DHT22;6591;51.446;5.404;2022-08-30T08:21:27;22.80;95.20
13049;DHT22;6591;51.446;5.404;2022-08-30T08:23:55;22.90;95.10
13049;DHT22;6591;51.446;5.404;2022-08-30T08:26:22;22.90;94.70
13049;DHT22;6591;51.446;5.404;2022-08-30T08:28:49;23.20;94.70
13049;DHT22;6591;51.446;5.404;2022-08-30T08:31:18;25.30;95.10
13049;DHT22;6591;51.446;5.404;2022-08-30T08:33:56;23.30;94.30
13049;DHT22;6591;51.446;5.404;2022-08-30T08:36:29;23.40;94.30
13049;DHT22;6591;51.446;5.404;2022-08-30T08:39:02;25.50;94.60
13049;DHT22;6591;51.446;5.404;2022-08-30T08:41:52;23.10;93.60
13049;DHT22;6591;51.446;5.404;2022-08-30T08:44:52;23.80;93.30
13049;DHT22;6591;51.446;5.404;2022-08-30T08:48:25;23.90;92.90
13049;DHT22;6591;51.446;5.404;2022-08-30T08:50:45;24.00;93.00
13049;DHT22;6591;51.446;5.404;2022-08-30T08:53:36;24.20;92.70
13049;DHT22;6591;51.446;5.404;2022-08-30T08:56:16;24.30;92.90
13049;DHT22;6591;51.446;5.404;2022-08-30T08:58:53;24.50;92.00
13049;DHT22;6591;51.446;5.404;2022-08-30T09:01:26;24.60;91.50
13049;DHT22;6591;51.446;5.404;2022-08-30T09:03:57;24.70;91.10
13049;DHT22;6591;51.446;5.404;2022-08-30T09:06:48;24.70;90.90
13049;DHT22;6591;51.446;5.404;2022-08-30T09:09:36;24.70;89.30
13049;DHT22;6591;51.446;5.404;2022-08-30T09:12:08;26.90;91.10
13049;DHT22;6591;51.446;5.404;2022-08-30T09:14:47;25.00;90.50
13049;DHT22;6591;51.446;5.404;2022-08-30T09:18:06;25.00;89.50
13049;DHT22;6591;51.446;5.404;2022-08-30T09:20:47;25.20;88.10
13049;DHT22;6591;51.446;5.404;2022-08-30T09:23:26;25.30;89.50
13049;DHT22;6591;51.446;5.404;2022-08-30T09:25:58;25.40;88.80
13049;DHT22;6591;51.446;5.404;2022-08-30T09:28:49;27.00;89.40
13049;DHT22;6591;51.446;5.404;2022-08-30T09:31:26;25.60;88.40
13049;DHT22;6591;51.446;5.404;2022-08-30T09:34:06;25.00;87.60
13049;DHT22;6591;51.446;5.404;2022-08-30T09:36:52;25.90;85.60
13049;DHT22;6591;51.446;5.404;2022-08-30T09:39:32;26.10;83.90
13049;DHT22;6591;51.446;5.404;2022-08-30T09:42:13;26.20;83.10
13049;DHT22;6591;51.446;5.404;2022-08-30T09:44:46;26.20;83.60
13049;DHT22;6591;51.446;5.404;2022-08-30T09:47:22;26.30;84.60
13049;DHT22;6591;51.446;5.404;2022-08-30T09:52:50;26.40;81.50
13049;DHT22;6591;51.446;5.404;2022-08-30T09:55:48;28.50;82.50
13049;DHT22;6591;51.446;5.404;2022-08-30T10:01:53;26.60;80.90
13049;DHT22;6591;51.446;5.404;2022-08-30T10:04:52;27.60;81.50
13049;DHT22;6591;51.446;5.404;2022-08-30T10:10:50;26.00;75.70
13049;DHT22;6591;51.446;5.404;2022-08-30T10:22:55;27.20;77.70
13049;DHT22;6591;51.446;5.404;2022-08-30T10:26:13;27.30;76.10
13049;DHT22;6591;51.446;5.404;2022-08-30T10:29:21;27.40;76.10
13049;DHT22;6591;51.446;5.404;2022-08-30T10:37:19;27.00;73.90
13049;DHT22;6591;51.446;5.404;2022-08-30T10:40:05;27.60;75.70
13049;DHT22;6591;51.446;5.404;2022-08-30T10:43:08;27.70;74.40
13049;DHT22;6591;51.446;5.404;2022-08-30T10:45:45;27.80;74.50
13049;DHT22;6591;51.446;5.404;2022-08-30T10:51:03;27.70;73.30
13049;DHT22;6591;51.446;5.404;2022-08-30T10:53:43;27.80;74.10
13049;DHT22;6591;51.446;5.404;2022-08-30T10:56:18;26.30;71.70
13049;DHT22;6591;51.446;5.404;2022-08-30T10:58:52;27.90;72.50
13049;DHT22;6591;51.446;5.404;2022-08-30T11:07:05;27.90;70.20
13049;DHT22;6591;51.446;5.404;2022-08-30T11:16:11;29.70;71.70
13049;DHT22;6591;51.446;5.404;2022-08-30T11:18:51;28.00;68.00
13049;DHT22;6591;51.446;5.404;2022-08-30T11:21:35;28.00;71.40
13049;DHT22;6591;51.446;5.404;2022-08-30T11:24:13;28.00;71.00
13049;DHT22;6591;51.446;5.404;2022-08-30T11:29:27;30.10;71.70
13049;DHT22;6591;51.446;5.404;2022-08-30T11:40:43;28.50;66.80
13049;DHT22;6591;51.446;5.404;2022-08-30T11:55:01;28.60;66.60
13049;DHT22;6591;51.446;5.404;2022-08-30T11:58:24;28.60;66.30
13049;DHT22;6591;51.446;5.404;2022-08-30T12:06:46;28.80;65.70
13049;DHT22;6591;51.446;5.404;2022-08-30T12:12:11;28.70;66.30
13049;DHT22;6591;51.446;5.404;2022-08-30T12:15:03;28.90;66.20
13049;DHT22;6591;51.446;5.404;2022-08-30T12:17:53;29.20;65.30
13049;DHT22;6591;51.446;5.404;2022-08-30T12:20:47;29.40;62.90
13049;DHT22;6591;51.446;5.404;2022-08-30T12:23:29;29.50;63.30
13049;DHT22;6591;51.446;5.404;2022-08-30T12:26:11;29.70;63.20
13049;DHT22;6591;51.446;5.404;2022-08-30T12:37:01;30.00;60.90
13049;DHT22;6591;51.446;5.404;2022-08-30T12:39:41;30.10;60.40
13049;DHT22;6591;51.446;5.404;2022-08-30T12:42:18;30.10;59.80
13049;DHT22;6591;51.446;5.404;2022-08-30T12:44:48;30.10;60.00
13049;DHT22;6591;51.446;5.404;2022-08-30T12:47:25;30.10;60.00
13049;DHT22;6591;51.446;5.404;2022-08-30T12:49:57;30.00;60.50
13049;DHT22;6591;51.446;5.404;2022-08-30T12:52:28;30.00;60.90
13049;DHT22;6591;51.446;5.404;2022-08-30T12:55:21;30.10;61.00
13049;DHT22;6591;51.446;5.404;2022-08-30T12:58:05;30.20;58.50
13049;DHT22;6591;51.446;5.404;2022-08-30T13:00:39;30.30;58.30
13049;DHT22;6591;51.446;5.404;2022-08-30T13:03:33;30.30;58.40
13049;DHT22;6591;51.446;5.404;2022-08-30T13:06:04;30.30;57.70
13049;DHT22;6591;51.446;5.404;2022-08-30T13:08:48;30.20;58.40
13049;DHT22;6591;51.446;5.404;2022-08-30T13:16:26;30.10;58.60
13049;DHT22;6591;51.446;5.404;2022-08-30T13:19:32;30.20;58.40
13049;DHT22;6591;51.446;5.404;2022-08-30T13:22:02;30.30;58.30
13049;DHT22;6591;51.446;5.404;2022-08-30T13:24:30;30.60;59.50
13049;DHT22;6591;51.446;5.404;2022-08-30T13:27:02;30.80;58.20
13049;DHT22;6591;51.446;5.404;2022-08-30T13:29:37;31.20;57.40
13049;DHT22;6591;51.446;5.404;2022-08-30T13:32:04;31.40;56.50
13049;DHT22;6591;51.446;5.404;2022-08-30T13:34:31;31.30;56.20
13049;DHT22;6591;51.446;5.404;2022-08-30T13:37:01;31.50;56.30
13049;DHT22;6591;51.446;5.404;2022-08-30T13:39:30;32.80;57.80
13049;DHT22;6591;51.446;5.404;2022-08-30T13:42:02;31.80;56.60
13049;DHT22;6591;51.446;5.404;2022-08-30T13:44:49;31.90;54.30
13049;DHT22;6591;51.446;5.404;2022-08-30T13:47:19;32.10;55.00
13049;DHT22;6591;51.446;5.404;2022-08-30T13:50:04;32.10;54.10
13049;DHT22;6591;51.446;5.404;2022-08-30T13:52:32;33.00;54.60
13049;DHT22;6591;51.446;5.404;2022-08-30T13:55:00;33.80;55.00
13049;DHT22;6591;51.446;5.404;2022-08-30T13:57:31;32.00;53.00
13049;DHT22;6591;51.446;5.404;2022-08-30T14:00:19;32.00;53.30
13049;DHT22;6591;51.446;5.404;2022-08-30T14:02:48;32.00;53.60
13049;DHT22;6591;51.446;5.404;2022-08-30T14:05:25;32.00;53.80
13049;DHT22;6591;51.446;5.404;2022-08-30T14:08:22;31.90;53.30
13049;DHT22;6591;51.446;5.404;2022-08-30T14:11:15;32.40;52.60
13049;DHT22;6591;51.446;5.404;2022-08-30T14:13:45;32.40;52.90
13049;DHT22;6591;51.446;5.404;2022-08-30T14:16:34;32.50;52.00
13049;DHT22;6591;51.446;5.404;2022-08-30T14:19:05;32.40;51.20
13049;DHT22;6591;51.446;5.404;2022-08-30T14:21:33;32.40;51.10
13049;DHT22;6591;51.446;5.404;2022-08-30T14:24:02;32.60;51.00
13049;DHT22;6591;51.446;5.404;2022-08-30T14:26:44;32.50;50.90
13049;DHT22;6591;51.446;5.404;2022-08-30T14:29:17;32.40;50.60
13049;DHT22;6591;51.446;5.404;2022-08-30T14:31:47;32.40;50.40
13049;DHT22;6591;51.446;5.404;2022-08-30T14:34:15;32.30;50.60
13049;DHT22;6591;51.446;5.404;2022-08-30T14:36:44;32.30;50.40
13049;DHT22;6591;51.446;5.404;2022-08-30T14:39:15;32.20;50.20
13049;DHT22;6591;51.446;5.404;2022-08-30T14:41:47;30.00;49.40
13049;DHT22;6591;51.446;5.404;2022-08-30T14:44:20;31.80;50.60
13049;DHT22;6591;51.446;5.404;2022-08-30T14:46:48;31.80;50.20
13049;DHT22;6591;51.446;5.404;2022-08-30T14:49:17;31.80;50.20
13049;DHT22;6591;51.446;5.404;2022-08-30T14:51:45;31.80;50.40
13049;DHT22;6591;51.446;5.404;2022-08-30T14:54:16;31.80;49.80
13049;DHT22;6591;51.446;5.404;2022-08-30T14:56:45;31.60;50.20
13049;DHT22;6591;51.446;5.404;2022-08-30T14:59:13;31.10;49.10
13049;DHT22;6591;51.446;5.404;2022-08-30T15:01:42;31.40;49.20
13049;DHT22;6591;51.446;5.404;2022-08-30T15:04:12;31.00;49.50
13049;DHT22;6591;51.446;5.404;2022-08-30T15:06:43;30.70;49.70
13049;DHT22;6591;51.446;5.404;2022-08-30T15:09:16;30.50;49.70
13049;DHT22;6591;51.446;5.404;2022-08-30T15:11:51;30.40;50.00
13049;DHT22;6591;51.446;5.404;2022-08-30T15:14:22;30.20;50.50
13049;DHT22;6591;51.446;5.404;2022-08-30T15:16:53;29.90;50.80
13049;DHT22;6591;51.446;5.404;2022-08-30T15:19:20;29.80;51.10
13049;DHT22;6591;51.446;5.404;2022-08-30T15:21:47;29.70;51.30
13049;DHT22;6591;51.446;5.404;2022-08-30T15:24:18;31.20;52.70
13049;DHT22;6591;51.446;5.404;2022-08-30T15:26:55;29.50;52.20
13049;DHT22;6591;51.446;5.404;2022-08-30T15:29:28;29.60;52.10
13049;DHT22;6591;51.446;5.404;2022-08-30T15:32:00;29.70;52.10
13049;DHT22;6591;51.446;5.404;2022-08-30T15:34:31;28.70;51.30
13049;DHT22;6591;51.446;5.404;2022-08-30T15:37:02;29.70;51.60
13049;DHT22;6591;51.446;5.404;2022-08-30T15:39:30;29.60;51.80
13049;DHT22;6591;51.446;5.404;2022-08-30T15:42:00;29.70;51.90
13049;DHT22;6591;51.446;5.404;2022-08-30T15:44:31;29.60;52.00
13049;DHT22;6591;51.446;5.404;2022-08-30T15:47:00;28.90;51.90
13049;DHT22;6591;51.446;5.404;2022-08-30T15:49:27;29.50;52.00
13049;DHT22;6591;51.446;5.404;2022-08-30T15:51:59;28.30;51.30
13049;DHT22;6591;51.446;5.404;2022-08-30T15:54:28;29.60;52.70
13049;DHT22;6591;51.446;5.404;2022-08-30T15:56:55;29.40;52.00
13049;DHT22;6591;51.446;5.404;2022-08-30T15:59:29;29.30;51.80
13049;DHT22;6591;51.446;5.404;2022-08-30T16:01:57;29.10;51.80
13049;DHT22;6591;51.446;5.404;2022-08-30T16:04:27;28.80;52.40
13049;DHT22;6591;51.446;5.404;2022-08-30T16:06:54;28.90;52.20
13049;DHT22;6591;51.446;5.404;2022-08-30T16:09:22;29.10;53.30
13049;DHT22;6591;51.446;5.404;2022-08-30T16:11:50;29.10;53.40
13049;DHT22;6591;51.446;5.404;2022-08-30T16:14:17;29.30;53.60
13049;DHT22;6591;51.446;5.404;2022-08-30T16:16:45;29.60;52.90
13049;DHT22;6591;51.446;5.404;2022-08-30T16:19:12;30.60;52.60
13049;DHT22;6591;51.446;5.404;2022-08-30T16:21:40;29.90;52.00
13049;DHT22;6591;51.446;5.404;2022-08-30T16:24:09;30.00;51.50
13049;DHT22;6591;51.446;5.404;2022-08-30T16:26:41;28.80;50.60
13049;DHT22;6591;51.446;5.404;2022-08-30T16:29:09;29.90;51.00
13049;DHT22;6591;51.446;5.404;2022-08-30T16:31:40;29.80;51.10
13049;DHT22;6591;51.446;5.404;2022-08-30T16:34:15;29.80;51.20
13049;DHT22;6591;51.446;5.404;2022-08-30T16:36:44;29.50;51.50
13049;DHT22;6591;51.446;5.404;2022-08-30T16:39:12;29.40;51.50
13049;DHT22;6591;51.446;5.404;2022-08-30T16:41:40;31.30;53.30
13049;DHT22;6591;51.446;5.404;2022-08-30T16:44:10;29.10;51.80
13049;DHT22;6591;51.446;5.404;2022-08-30T16:46:37;29.10;51.50
13049;DHT22;6591;51.446;5.404;2022-08-30T16:49:07;29.00;52.10
13049;DHT22;6591;51.446;5.404;2022-08-30T16:51:35;29.00;52.10
13049;DHT22;6591;51.446;5.404;2022-08-30T16:54:05;28.80;52.30
13049;DHT22;6591;51.446;5.404;2022-08-30T16:56:35;28.80;52.20
13049;DHT22;6591;51.446;5.404;2022-08-30T16:59:05;28.70;52.60
13049;DHT22;6591;51.446;5.404;2022-08-30T17:01:37;30.90;53.70
13049;DHT22;6591;51.446;5.404;2022-08-30T17:04:05;28.50;52.30
13049;DHT22;6591;51.446;5.404;2022-08-30T17:06:34;28.60;52.60
13049;DHT22;6591;51.446;5.404;2022-08-30T17:09:06;28.40;52.80
13049;DHT22;6591;51.446;5.404;2022-08-30T17:11:35;28.40;52.90
13049;DHT22;6591;51.446;5.404;2022-08-30T17:14:06;28.30;53.10
13049;DHT22;6591;51.446;5.404;2022-08-30T17:16:34;28.30;52.70
13049;DHT22;6591;51.446;5.404;2022-08-30T17:19:04;28.20;52.70
13049;DHT22;6591;51.446;5.404;2022-08-30T17:21:33;28.20;52.80
13049;DHT22;6591;51.446;5.404;2022-08-30T17:24:02;28.00;52.90
13049;DHT22;6591;51.446;5.404;2022-08-30T17:26:31;28.00;52.70
13049;DHT22;6591;51.446;5.404;2022-08-30T17:29:01;27.80;52.90
13049;DHT22;6591;51.446;5.404;2022-08-30T17:31:29;27.80;53.00
13049;DHT22;6591;51.446;5.404;2022-08-30T17:34:02;27.60;53.00
13049;DHT22;6591;51.446;5.404;2022-08-30T17:36:50;27.50;53.40
13049;DHT22;6591;51.446;5.404;2022-08-30T17:39:21;27.80;53.60
13049;DHT22;6591;51.446;5.404;2022-08-30T17:41:49;27.20;53.60
13049;DHT22;6591;51.446;5.404;2022-08-30T17:44:23;26.60;53.20
13049;DHT22;6591;51.446;5.404;2022-08-30T17:47:01;26.80;54.10
13049;DHT22;6591;51.446;5.404;2022-08-30T17:49:29;26.50;54.00